Latest Weather Observations for Trepell

IDQ60801

Issued at 10:05 am EST Wednesday 22 October 2014 (issued every 30 minutes, with the page automatically refreshed every 10 minutes)

About weather observations | Map of weather stations | Latest weather observations for QLD | Other Formats
Station Details ID: 037036 Name: TREPELL AIRPORT Lat: -21.84 Lon: 140.89 Height: 266.2 m
Data from the previous 72 hours. | See also: Recent months at Trepell
Date/Time
EST
Temp
°C
App
Temp
°C
Dew
Point
Rel
Hum
%
Delta-T
°C
Wind Press
QNH
hPa
Press
MSL
hPa
Rain
since 9 am
mm
Dir
 
Spd
km/h
Gust
km/h
Spd
kts
Gust
kts
22/10:00am 28.7 22.6 8.4 28 11.2 NE 30 39 16 21 1021.0 1019.4 0.0
22/09:30am 27.2 20.6 8.6 31 10.2 NE 33 48 18 26 1021.2 1019.6 0.0
22/09:00am 27.6 20.4 9.0 31 10.3 NE 37 46 20 25 1020.9 1019.3 0.0
22/08:30am 26.3 18.2 8.8 33 9.6 NE 41 54 22 29 1020.8 1019.2 0.0
22/08:00am 25.9 18.9 8.4 33 9.5 NE 35 48 19 26 1020.4 1018.8 0.0
22/07:30am 25.0 19.2 8.1 34 9.1 NE 28 35 15 19 1020.0 1018.4 0.0
22/07:20am 24.2 18.2 6.9 33 9.1 NE 28 39 15 21 1019.9 1018.3 0.0
22/07:00am 22.8 18.8 4.8 31 9.0 ENE 15 19 8 10 1019.5 1018.0 0.0
22/06:30am 20.4 16.5 3.2 32 8.2 ENE 13 15 7 8 1019.1 1017.6 0.0
22/06:00am 19.7 15.9 3.8 35 7.6 NE 13 15 7 8 1018.6 1017.1 0.0
22/05:30am 20.7 17.0 4.7 35 7.9 ENE 13 13 7 7 1018.2 1016.6 0.0
22/05:00am 20.0 16.4 2.8 32 8.1 NE 11 13 6 7 1017.9 1016.3 0.0
22/04:30am 21.1 17.9 3.3 31 8.6 NNE 9 11 5 6 1017.7 1016.1 0.0
22/04:00am 21.1 17.9 2.9 30 8.7 NNE 9 9 5 5 1017.6 1016.0 0.0
22/03:30am 20.9 16.9 2.7 30 8.7 NNE 13 13 7 7 1017.4 1015.8 0.0
22/03:00am 21.0 17.8 2.8 30 8.7 NNE 9 11 5 6 1017.4 1015.8 0.0
22/02:30am 20.7 17.2 1.1 27 9.0 NE 9 11 5 6 1017.4 1015.8 0.0
22/02:00am 20.8 17.2 0.6 26 9.2 NNE 9 13 5 7 1017.6 1016.0 0.0
22/01:30am 22.6 18.8 1.6 25 9.9 E 11 15 6 8 1017.9 1016.3 0.0
22/01:00am 22.7 18.4 1.1 24 10.1 E 13 15 7 8 1018.2 1016.6 0.0
22/12:30am 22.6 18.6 0.4 23 10.2 E 11 13 6 7 1018.5 1016.9 0.0
22/12:00am 23.2 18.8 0.3 22 10.6 E 13 13 7 7 1018.8 1017.3 0.0
 
Date/Time
EST
Temp
°C
App
Temp
°C
Dew
Point
Rel
Hum
%
Delta-T
°C
Wind Press
QNH
hPa
Press
MSL
hPa
Rain
since 9 am
mm
Dir
 
Spd
km/h
Gust
km/h
Spd
kts
Gust
kts
21/11:30pm 23.6 19.3 0.7 22 10.7 E 13 15 7 8 1019.1 1017.6 0.0
21/11:00pm 24.0 19.6 0.4 21 11.0 E 13 17 7 9 1019.2 1017.7 0.0
21/10:30pm 24.1 19.6 -0.2 20 11.2 E 13 15 7 8 1019.2 1017.7 0.0
21/10:00pm 24.6 20.0 -1.3 18 11.7 E 13 15 7 8 1019.1 1017.6 0.0
21/09:30pm 25.3 21.0 -1.5 17 12.2 E 11 13 6 7 1018.7 1017.2 0.0
21/09:00pm 26.8 22.7 -0.3 17 12.7 E 11 13 6 7 1018.3 1016.7 0.0
21/08:30pm 27.3 22.6 -1.6 15 13.3 E 13 15 7 8 1018.1 1016.5 0.0
21/08:00pm 28.4 23.7 -1.6 14 13.9 E 13 15 7 8 1017.8 1016.2 0.0
21/07:30pm 29.6 24.3 -0.7 14 14.4 E 17 20 9 11 1017.3 1015.7 0.0
21/07:00pm 31.1 25.4 0.5 14 15.0 E 20 26 11 14 1017.0 1015.4 0.0
21/06:30pm 32.2 26.1 0.3 13 15.7 E 22 30 12 16 1016.6 1015.0 0.0
21/06:00pm 33.2 27.0 0.0 12 16.4 E 22 30 12 16 1016.4 1014.8 0.0
21/05:30pm 34.0 28.1 -0.6 11 17.0 E 20 32 11 17 1016.1 1014.5 0.0
21/05:00pm 34.6 28.2 -1.4 10 17.5 E 22 32 12 17 1015.8 1014.3 0.0
21/04:30pm 34.1 27.3 -1.8 10 17.3 E 24 48 13 26 1015.8 1014.3 0.0
21/04:00pm 34.4 27.6 -1.6 10 17.4 E 24 39 13 21 1015.8 1014.3 0.0
21/03:30pm 34.7 29.3 -1.4 10 17.6 E 17 32 9 17 1016.1 1014.5 0.0
21/03:00pm 34.5 27.6 -2.9 9 17.8 ENE 24 32 13 17 1016.4 1014.8 0.0
21/02:30pm 34.3 27.5 -1.7 10 17.4 E 24 37 13 20 1016.8 1015.2 0.0
21/02:00pm 34.0 28.5 0.6 12 16.7 NE 19 26 10 14 1017.2 1015.6 0.0
21/01:30pm 33.8 27.9 1.6 13 16.4 E 22 33 12 18 1017.9 1016.3 0.0
21/01:00pm 32.9 25.7 0.9 13 16.0 NE 28 35 15 19 1018.5 1016.9 0.0
21/12:30pm 32.9 29.1 3.8 16 15.3 E 13 19 7 10 1019.1 1017.6 0.0
21/12:00pm 31.7 26.9 2.8 16 14.8 E 17 32 9 17 1019.7 1018.2 0.0
21/11:30am 31.3 24.6 3.4 17 14.4 ENE 28 39 15 21 1020.5 1018.9 0.0
21/11:00am 30.5 25.1 4.3 19 13.6 ENE 22 28 12 15 1020.7 1019.1 0.0
21/10:30am 30.1 24.8 6.7 23 12.7 NE 24 32 13 17 1021.0 1019.4 0.0
21/10:00am 29.9 25.1 7.2 24 12.4 NE 22 33 12 18 1021.2 1019.6 0.0
21/09:30am 28.1 22.5 5.6 24 11.8 NNE 24 32 13 17 1021.3 1019.7 0.0
21/09:00am 27.7 22.2 5.9 25 11.5 NE 24 35 13 19 1021.1 1019.5 0.0
21/08:30am 27.0 21.6 6.4 27 10.9 NNE 24 32 13 17 1021.0 1019.4 0.0
21/08:00am 25.5 19.1 5.1 27 10.4 NNE 28 35 15 19 1020.7 1019.1 0.0
21/07:30am 24.8 20.2 1.7 22 11.1 NE 15 22 8 12 1020.4 1018.8 0.0
21/07:00am 22.8 18.5 1.2 24 10.1 NE 13 15 7 8 1020.0 1018.4 0.0
21/06:30am 19.4 15.4 0.4 28 8.5 NE 11 13 6 7 1019.5 1018.0 0.0
21/06:00am 18.6 14.1 -0.2 28 8.3 NNE 13 15 7 8 1019.0 1017.5 0.0
21/05:30am 20.0 17.1 1.4 29 8.6 NNE 6 7 3 4 1018.4 1016.8 0.0
21/05:00am 20.1 16.9 1.0 28 8.7 NNE 7 9 4 5 1017.9 1016.3 0.0
21/04:30am 20.2 17.1 0.1 26 9.0 NNE 6 7 3 4 1017.7 1016.1 0.0
21/04:00am 20.2 17.0 -0.4 25 9.2 NE 6 7 3 4 1017.5 1015.9 0.0
21/03:30am 19.7 17.5 -1.4 24 9.2 CALM 0 0 0 0 1017.4 1015.8 0.0
21/03:00am 20.4 17.3 0.3 26 9.1 ENE 6 7 3 4 1017.5 1015.9 0.0
21/02:30am 20.3 16.9 -0.9 24 9.4 E 7 7 4 4 1017.4 1015.8 0.0
21/02:00am 20.6 17.4 -0.7 24 9.4 ENE 6 7 3 4 1017.6 1016.0 0.0
21/01:30am 20.8 16.9 -1.7 22 9.8 ENE 9 11 5 6 1017.7 1016.1 0.0
21/01:00am 21.7 17.4 -1.6 21 10.2 ENE 11 13 6 7 1018.0 1016.4 0.0
21/12:30am 21.6 17.7 -1.6 21 10.2 ENE 9 11 5 6 1018.2 1016.6 0.0
21/12:00am 21.6 17.2 -2.3 20 10.3 ENE 11 13 6 7 1018.4 1016.8 0.0
 
Date/Time
EST
Temp
°C
App
Temp
°C
Dew
Point
Rel
Hum
%
Delta-T
°C
Wind Press
QNH
hPa
Press
MSL
hPa
Rain
since 9 am
mm
Dir
 
Spd
km/h
Gust
km/h
Spd
kts
Gust
kts
20/11:30pm 22.1 18.1 -1.9 20 10.5 ENE 9 11 5 6 1018.4 1016.8 0.0
20/11:00pm 23.2 18.9 -1.7 19 11.1 E 11 13 6 7 1018.6 1017.1 0.0
20/10:30pm 24.0 19.7 -1.8 18 11.5 E 11 13 6 7 1018.7 1017.2 0.0
20/10:00pm 24.7 20.4 -2.0 17 11.9 E 11 13 6 7 1018.5 1016.9 0.0
20/09:30pm 25.2 20.8 -2.4 16 12.3 E 11 11 6 6 1018.4 1016.8 0.0
20/09:00pm 26.3 21.9 -2.4 15 12.9 E 11 15 6 8 1018.0 1016.4 0.0
20/08:30pm 28.0 23.4 -1.0 15 13.6 E 13 15 7 8 1017.7 1016.1 0.0
20/08:00pm 29.0 24.0 -1.2 14 14.2 ESE 15 17 8 9 1017.6 1016.0 0.0
20/07:30pm 30.1 25.1 -1.3 13 14.9 ESE 15 19 8 10 1017.3 1015.7 0.0
20/07:00pm 31.2 25.9 -0.5 13 15.3 ESE 17 22 9 12 1016.9 1015.3 0.0
20/06:30pm 32.3 26.6 0.4 13 15.8 ESE 20 24 11 13 1016.4 1014.8 0.0
20/06:00pm 33.1 27.5 -0.1 12 16.3 ESE 19 26 10 14 1016.1 1014.5 0.0
20/05:30pm 33.4 29.5 1.3 13 16.2 ESE 11 17 6 9 1015.7 1014.2 0.0
20/05:00pm 33.6 29.1 2.4 14 16.1 ESE 15 22 8 12 1015.6 1014.1 0.0
20/04:30pm 34.1 28.4 0.7 12 16.8 E 20 26 11 14 1015.5 1014.0 0.0
20/04:00pm 34.5 29.0 2.1 13 16.7 ENE 20 30 11 16 1015.6 1014.1 0.0
20/03:30pm 34.4 30.3 2.0 13 16.7 ENE 13 20 7 11 1015.8 1014.3 0.0
20/03:00pm 33.5 28.1 1.3 13 16.3 SE 19 26 10 14 1016.1 1014.5 0.0
20/02:30pm 33.7 28.5 3.5 15 15.8 E 20 30 11 16 1016.5 1014.9 0.0
20/02:00pm 32.6 28.7 3.5 16 15.2 ENE 13 26 7 14 1017.0 1015.4 0.0
20/01:30pm 33.1 28.5 3.9 16 15.4 ENE 17 28 9 15 1017.6 1016.0 0.0
20/01:00pm 32.3 27.4 5.0 18 14.5 E 20 28 11 15 1018.2 1016.6 0.0
20/12:30pm 32.2 27.6 5.7 19 14.3 E 19 32 10 17 1018.9 1017.4 0.0
20/12:00pm 32.0 28.3 6.2 20 14.0 E 15 26 8 14 1019.5 1018.0 0.0
20/11:30am 30.7 26.7 6.6 22 13.1 NE 17 32 9 17 1020.1 1018.5 0.0
20/11:00am 29.7 25.0 7.6 25 12.1 NE 22 39 12 21 1020.6 1019.0 0.0
20/10:30am 29.0 23.1 7.6 26 11.7 NE 28 35 15 19 1021.1 1019.5 0.0
20/10:00am 28.5 23.3 8.7 29 11.0 NE 26 37 14 20 1021.4 1019.8 0.0
20/09:30am 27.8 22.2 8.6 30 10.6 NE 28 37 15 20 1021.8 1020.2 0.0
20/09:00am 26.8 20.4 9.2 33 9.7 NNE 33 46 18 25 1021.8 1020.2 0.0
20/08:30am 26.1 20.1 8.6 33 9.6 NE 30 39 16 21 1021.7 1020.1 0.0
20/08:00am 25.2 19.3 7.3 32 9.5 NE 28 35 15 19 1021.5 1019.9 0.0
20/07:30am 24.3 19.7 6.6 32 9.3 NE 20 30 11 16 1021.0 1019.4 0.0
20/07:00am 22.9 19.5 5.8 33 8.7 NE 13 17 7 9 1020.6 1019.0 0.0
20/06:30am 21.3 17.4 5.2 35 8.1 NE 15 17 8 9 1020.3 1018.7 0.0
20/06:00am 20.1 16.7 4.2 35 7.7 NE 11 13 6 7 1019.7 1018.2 0.0
20/05:30am 20.3 16.9 3.9 34 8.0 NE 11 17 6 9 1019.2 1017.7 0.0
20/05:00am 20.6 16.7 3.3 32 8.3 ENE 13 15 7 8 1019.1 1017.6 0.0
20/04:30am 22.1 18.0 4.2 31 8.8 ENE 15 19 8 10 1018.7 1017.2 0.0
20/04:00am 22.1 18.0 4.2 31 8.8 E 15 19 8 10 1018.4 1016.8 0.0
20/03:30am 22.1 17.9 3.7 30 9.0 E 15 17 8 9 1018.4 1016.8 0.0
20/03:00am 23.0 18.5 4.0 29 9.4 ESE 17 19 9 10 1018.4 1016.8 0.0
20/02:30am 23.3 18.4 4.3 29 9.5 ESE 19 22 10 12 1018.4 1016.8 0.0
20/02:00am 22.8 18.1 3.4 28 9.5 E 17 19 9 10 1018.6 1017.1 0.0
20/01:30am 22.9 18.6 3.4 28 9.5 E 15 19 8 10 1018.9 1017.4 0.0
20/01:00am 22.9 18.2 2.9 27 9.7 E 17 17 9 9 1019.0 1017.5 0.0
20/12:30am 22.9 18.4 2.4 26 9.8 E 15 17 8 9 1019.2 1017.7 0.0
20/12:00am 23.4 18.8 1.7 24 10.3 E 15 17 8 9 1019.5 1018.0 0.0
 
Date/Time
EST
Temp
°C
App
Temp
°C
Dew
Point
Rel
Hum
%
Delta-T
°C
Wind Press
QNH
hPa
Press
MSL
hPa
Rain
since 9 am
mm
Dir
 
Spd
km/h
Gust
km/h
Spd
kts
Gust
kts
19/11:30pm 24.2 19.6 1.8 23 10.7 E 15 17 8 9 1019.9 1018.3 0.0
19/11:00pm 25.3 20.4 2.1 22 11.2 E 17 19 9 10 1019.9 1018.3 0.0
19/10:30pm 25.8 20.8 1.2 20 11.8 E 17 22 9 12 1020.1 1018.5 0.0
19/10:00pm 25.1 20.4 0.6 20 11.5 E 15 17 8 9 1019.9 1018.3 0.0
19/09:30pm 25.4 21.0 0.1 19 11.9 E 13 17 7 9 1019.5 1018.0 0.0
19/09:00pm 26.5 22.1 0.3 18 12.4 E 13 15 7 8 1019.1 1017.6 0.0
19/08:30pm 27.4 22.6 0.2 17 13.0 E 15 17 8 9 1018.6 1017.1 0.0
19/08:00pm 28.7 23.5 0.4 16 13.6 E 17 20 9 11 1018.0 1016.4 0.0
19/07:30pm 29.4 24.6 0.1 15 14.1 E 15 19 8 10 1017.6 1016.0 0.0
19/07:00pm 30.6 24.8 0.1 14 14.8 E 20 30 11 16 1017.0 1015.4 0.0
19/06:30pm 31.9 25.4 0.1 13 15.6 ESE 24 28 13 15 1016.6 1015.0 0.0
19/06:00pm 32.7 26.5 -0.4 12 16.2 E 22 30 12 16 1016.2 1014.6 0.0
19/05:30pm 33.2 25.9 0.0 12 16.4 E 28 35 15 19 1015.8 1014.3 0.0
19/05:00pm 34.2 27.4 0.8 12 16.8 E 26 37 14 20 1015.5 1014.0 0.0
19/04:30pm 34.3 28.3 0.8 12 16.9 E 22 33 12 18 1015.5 1014.0 0.0
19/04:00pm 34.3 28.6 0.8 12 16.9 SE 20 32 11 17 1015.5 1014.0 0.0
19/03:30pm 34.7 29.7 1.1 12 17.1 E 17 32 9 17 1015.5 1014.0 0.0
19/03:00pm 33.5 27.4 0.2 12 16.5 E 22 35 12 19 1016.0 1014.4 0.0
19/02:30pm 33.0 27.0 0.9 13 16.1 ENE 22 32 12 17 1016.5 1014.9 0.0
19/02:02pm 33.7 26.6 1.5 13 16.4 E 28 46 15 25 1017.0 1015.4 0.0
19/02:00pm 34.1 26.7 1.8 13 16.5 E 30 46 16 25 1017.1 1015.5 0.0
19/01:33pm 33.4 25.0 1.3 13 16.2 E 35 44 19 24 1017.4 1015.8 0.0
19/01:30pm 32.2 27.9 1.3 14 15.5 SE 13 19 7 10 1017.4 1015.8 0.0
19/01:00pm 32.9 26.7 1.9 14 15.7 E 24 41 13 22 1017.9 1016.3 0.0
19/12:30pm 32.2 25.6 2.3 15 15.2 ENE 26 39 14 21 1018.6 1017.1 0.0
19/12:00pm 32.2 26.3 4.1 17 14.7 NE 24 39 13 21 1019.2 1017.7 0.0
19/11:47am 31.2 24.4 3.3 17 14.4 ENE 28 46 15 25 1019.4 1017.9 0.0
19/11:30am 31.7 25.2 4.5 18 14.3 NE 28 41 15 22 1019.6 1018.1 0.0
19/11:00am 30.8 23.7 5.3 20 13.5 NNE 32 46 17 25 1020.1 1018.5 0.0
19/10:30am 30.2 23.1 5.5 21 13.1 NNE 32 43 17 23 1020.5 1018.9 0.0

Other Formats:

Comma delimited format used in spreadsheet applications
http://www.bom.gov.au/fwo/IDQ60801/IDQ60801.94338.axf

JavaScript Object Notation format (JSON) in row-major order
http://www.bom.gov.au/fwo/IDQ60801/IDQ60801.94338.json